Storm Events Database

Event Details

Event Thunderstorm Wind
Magnitude 60 kts.
State ALABAMA
County/Area DALLAS
WFO BMX
Report Source Emergency Manager
NCDC Data Source CSV
Begin Date 2010-10-24 16:55:00.0 CST-6
Begin Location 2ESE WESTERN JCT
Begin Lat/Lon 32.36/-86.99
End Date 2010-10-24 16:55:00.0 CST-6
Deaths Direct/Indirect 0/0 (fatality details below, when available...)
Injuries Direct/Indirect 0/0
Property Damage 10.00K
Crop Damage 0.00K
Episode Narrative Late afternoon thunderstorms in the warm sector of a powerful storm system continued through the night���becoming enhanced by a strengthening low level jet. Ample surface based instability, sufficient moisture and favorable vertical wind profiles resulted in an atmosphere supportive of super cell thunderstorms capable of producing large hail damaging wind and tornadoes.
Event Narrative Two storage sheds damaged along with multiple trees and power lines down at Craig Field Industrial Park, Avenue J, Harvelle Road, Avenue C, and on County Road 528. One building sustained roof damage at the Craig Fire Department.


    



All events for this episode:

Location County/Zone St. Date Time T.Z. Type Mag Dth Inj PrD CrD
Totals: 0 0 263.00K 0.00K
NORTHPORT TUSCALOOSA CO. AL 10/24/2010 01:55 CST-6 Thunderstorm Wind 55 kts. EG 0 0 2.00K 0.00K
SADIS DALLAS CO. AL 10/24/2010 16:45 CST-6 Thunderstorm Wind 60 kts. EG 0 0 2.00K 0.00K
WESTERN JCT DALLAS CO. AL 10/24/2010 16:55 CST-6 Thunderstorm Wind 60 kts. EG 0 0 10.00K 0.00K
BURNSVILLE DALLAS CO. AL 10/24/2010 17:10 CST-6 Thunderstorm Wind 60 kts. EG 0 0 4.00K 0.00K
BONITA AUTAUGA CO. AL 10/24/2010 17:25 CST-6 Thunderstorm Wind 60 kts. EG 0 0 8.00K 0.00K
BILLINGSLEY AUTAUGA CO. AL 10/24/2010 17:36 CST-6 Hail 1.00 in. 0 0 0.00K 0.00K
CLANTON GRAGG ARPT CHILTON CO. AL 10/24/2010 17:55 CST-6 Hail 1.50 in. 0 0 0.00K 0.00K
CLANTON GRAGG ARPT CHILTON CO. AL 10/24/2010 18:00 CST-6 Hail 1.00 in. 0 0 0.00K 0.00K
JEFFERSON MARENGO CO. AL 10/24/2010 18:43 CST-6 Hail 1.00 in. 0 0 0.00K 0.00K
LINDEN MARENGO CO. AL 10/24/2010 18:45 CST-6 Hail 2.75 in. 0 0 0.00K 0.00K
PRAIRIEVILLE HALE CO. AL 10/24/2010 19:03 CST-6 Hail 1.00 in. 0 0 0.00K 0.00K
VANCE TUSCALOOSA CO. AL 10/24/2010 20:10 CST-6 Hail 1.25 in. 0 0 0.00K 0.00K
VANCE TUSCALOOSA CO. AL 10/24/2010 20:10 CST-6 Thunderstorm Wind 60 kts. EG 0 0 3.00K 0.00K
VANCE TUSCALOOSA CO. AL 10/24/2010 20:14 CST-6 Hail 1.75 in. 0 0 0.00K 0.00K
OAK GROVE JEFFERSON CO. AL 10/24/2010 20:15 CST-6 Thunderstorm Wind 50 kts. EG 0 0 2.00K 0.00K
BUCKSVILLE TUSCALOOSA CO. AL 10/24/2010 20:20 CST-6 Hail 1.75 in. 0 0 0.00K 0.00K
SICO TALLADEGA CO. AL 10/24/2010 21:15 CST-6 Thunderstorm Wind 55 kts. EG 0 0 4.00K 0.00K
BLOUNTSVILLE BLOUNT CO. AL 10/24/2010 21:38 CST-6 Hail 1.00 in. 0 0 0.00K 0.00K
BLOUNTSVILLE BLOUNT CO. AL 10/24/2010 21:40 CST-6 Thunderstorm Wind 60 kts. EG 0 0 2.00K 0.00K
HOWTONS CAMP JEFFERSON CO. AL 10/24/2010 21:45 CST-6 Hail 1.75 in. 0 0 0.00K 0.00K
OAK GROVE JEFFERSON CO. AL 10/24/2010 21:59 CST-6 Hail 1.00 in. 0 0 0.00K 0.00K
QUINTON WALKER CO. AL 10/24/2010 22:00 CST-6 Hail 2.75 in. 0 0 20.00K 0.00K
WOODLAWN JEFFERSON CO. AL 10/24/2010 22:00 CST-6 Hail 1.00 in. 0 0 0.00K 0.00K
WOODLAWN JCT JEFFERSON CO. AL 10/24/2010 22:00 CST-6 Thunderstorm Wind 60 kts. EG 0 0 8.00K 0.00K
KILGORE JEFFERSON CO. AL 10/24/2010 22:12 CST-6 Thunderstorm Wind 60 kts. EG 0 0 3.00K 0.00K
ONEONTA BLOUNT CO. AL 10/24/2010 22:35 CST-6 Thunderstorm Wind 60 kts. EG 0 0 3.00K 0.00K
CREWS LAMAR CO. AL 10/25/2010 00:30 CST-6 Thunderstorm Wind 60 kts. EG 0 0 4.00K 0.00K
BEAVERTON LAMAR CO. AL 10/25/2010 00:40 CST-6 Thunderstorm Wind 60 kts. EG 0 0 3.00K 0.00K
VERNON LAMAR CO. AL 10/25/2010 00:40 CST-6 Thunderstorm Wind 60 kts. EG 0 0 3.00K 0.00K
DELMAR WINSTON CO. AL 10/25/2010 01:05 CST-6 Tornado EF1 0 0 100.00K 0.00K
HALEYVILLE WINSTON CO. AL 10/25/2010 01:12 CST-6 Thunderstorm Wind 60 kts. EG 0 0 4.00K 0.00K
PLEASANT HILL WINSTON CO. AL 10/25/2010 01:24 CST-6 Thunderstorm Wind 60 kts. EG 0 0 25.00K 0.00K
COKER TUSCALOOSA CO. AL 10/25/2010 01:40 CST-6 Thunderstorm Wind 50 kts. EG 0 0 2.00K 0.00K
NORTHPORT TUSCALOOSA CO. AL 10/25/2010 01:55 CST-6 Thunderstorm Wind 55 kts. EG 0 0 3.00K 0.00K
STRAWBERRY BLOUNT CO. AL 10/25/2010 02:30 CST-6 Thunderstorm Wind 60 kts. EG 0 0 2.00K 0.00K
ALLGOOD BLOUNT CO. AL 10/25/2010 02:40 CST-6 Thunderstorm Wind 60 kts. EG 0 0 3.00K 0.00K
SCOTT STATION PERRY CO. AL 10/25/2010 02:40 CST-6 Thunderstorm Wind 60 kts. EG 0 0 4.00K 0.00K
MOUNTAINBORO ETOWAH CO. AL 10/25/2010 02:57 CST-6 Thunderstorm Wind 60 kts. EG 0 0 7.00K 0.00K
MOUNTAINBORO ETOWAH CO. AL 10/25/2010 02:57 CST-6 Lightning 0 0 15.00K 0.00K
MIDDLETON CALHOUN CO. AL 10/25/2010 03:36 CST-6 Thunderstorm Wind 3 kts. EG 0 0 3.00K 0.00K
BONITA AUTAUGA CO. AL 10/25/2010 03:45 CST-6 Thunderstorm Wind 60 kts. EG 0 0 3.00K 0.00K
BLUE MTN CALHOUN CO. AL 10/25/2010 03:51 CST-6 Thunderstorm Wind 52 kts. MG 0 0 0.00K 0.00K
BLUE MTN CALHOUN CO. AL 10/25/2010 03:52 CST-6 Thunderstorm Wind 60 kts. EG 0 0 2.00K 0.00K
LANEY CALHOUN CO. AL 10/25/2010 03:52 CST-6 Thunderstorm Wind 60 kts. EG 0 0 7.00K 0.00K
PINE TUCKEY RANDOLPH CO. AL 10/25/2010 04:40 CST-6 Thunderstorm Wind 60 kts. EG 0 0 2.00K 0.00K
Totals: 0 0 263.00K 0.00K